Time;durP1;ratioP1;P1;durP2;ratioP2;P2;SDS_P1;SDS_P2;PMS_P1;PMS_P2;Temp;Humidity;BMP_temperature;BMP_pressure;BME280_temperature;BME280_humidity;BME280_pressure;Samples;Min_cycle;Max_cycle;Signal;HPM_P1;HPM_P2
2022/12/03 00:01:08;;;;;;;47.03;24.67;;;;;;;-2.01;76.20;102111.50;1602929;87;21101;-77
2022/12/03 00:03:53;;;;;;;50.90;24.60;;;;;;;-1.98;76.18;102109.92;1608998;87;21068;-77
2022/12/03 00:06:38;;;;;;;51.37;25.95;;;;;;;-2.01;76.10;102105.16;1606406;87;21412;-77
2022/12/03 00:09:23;;;;;;;41.10;19.00;;;;;;;-2.00;76.15;102114.91;1603031;87;21113;-76
2022/12/03 00:12:09;;;;;;;51.68;25.37;;;;;;;-2.03;76.13;102111.80;1605297;87;21150;-77
2022/12/03 00:14:54;;;;;;;52.53;26.82;;;;;;;-2.02;76.24;102104.67;1601874;87;21569;-77
2022/12/03 00:17:39;;;;;;;51.10;24.18;;;;;;;-2.00;76.28;102108.57;1608106;87;21150;-77
2022/12/03 00:20:25;;;;;;;61.53;28.57;;;;;;;-2.00;76.27;102105.64;1601373;87;21239;-76
2022/12/03 00:23:10;;;;;;;53.25;28.23;;;;;;;-2.01;76.25;102103.89;1606857;87;21093;-77
2022/12/03 00:25:55;;;;;;;57.67;26.77;;;;;;;-2.04;76.24;102099.91;1606921;87;21752;-77
2022/12/03 00:28:41;;;;;;;57.75;26.05;;;;;;;-2.06;76.29;102102.75;1604637;87;21070;-77
2022/12/03 00:31:26;;;;;;;63.90;26.90;;;;;;;-2.04;76.36;102097.38;1573200;89;26331;-76
2022/12/03 00:34:11;;;;;;;55.03;28.55;;;;;;;-2.02;76.34;102100.00;1604012;86;21126;-76
2022/12/03 00:36:56;;;;;;;62.33;28.13;;;;;;;-2.04;76.31;102093.58;1572814;89;21050;-76
2022/12/03 00:39:41;;;;;;;66.60;30.08;;;;;;;-2.04;76.32;102093.58;1606842;87;21833;-77
2022/12/03 00:42:26;;;;;;;62.20;28.40;;;;;;;-2.05;76.37;102086.76;1612816;85;21877;-77
2022/12/03 00:45:11;;;;;;;63.17;28.92;;;;;;;-2.00;76.42;102088.30;1639138;85;21113;-77
2022/12/03 00:47:56;;;;;;;60.75;30.10;;;;;;;-1.96;76.43;102085.55;1638131;85;21075;-77
2022/12/03 00:50:42;;;;;;;66.82;31.42;;;;;;;-1.96;76.32;102090.22;1600283;87;21119;-77
2022/12/03 00:53:27;;;;;;;64.67;29.57;;;;;;;-2.00;76.33;102091.70;1575995;89;21077;-76
2022/12/03 00:56:12;;;;;;;61.90;31.85;;;;;;;-2.00;76.38;102085.76;1624341;87;21081;-77
2022/12/03 00:58:57;;;;;;;62.40;32.50;;;;;;;-1.98;76.41;102089.26;1633120;85;21117;-76
2022/12/03 01:01:42;;;;;;;65.67;31.40;;;;;;;-1.95;76.47;102085.63;1639931;85;22000;-77
2022/12/03 01:04:27;;;;;;;68.20;30.62;;;;;;;-1.93;76.43;102085.72;1639469;85;20998;-77
2022/12/03 01:07:13;;;;;;;63.35;32.35;;;;;;;-1.91;76.44;102095.16;1638406;85;21731;-77
2022/12/03 01:09:58;;;;;;;56.10;27.80;;;;;;;-1.89;76.44;102089.79;1640625;85;21626;-77
2022/12/03 01:12:43;;;;;;;58.52;30.75;;;;;;;-1.88;76.43;102094.08;1638453;85;22318;-77
2022/12/03 01:15:28;;;;;;;53.48;26.75;;;;;;;-1.93;76.36;102095.86;1638100;85;21038;-76
2022/12/03 01:18:13;;;;;;;46.18;24.00;;;;;;;-1.95;76.35;102102.11;1599996;87;21093;-77
2022/12/03 01:20:58;;;;;;;50.00;25.70;;;;;;;-2.01;76.41;102091.61;1625605;86;21098;-77
2022/12/03 01:23:43;;;;;;;49.73;25.50;;;;;;;-2.03;76.42;102094.05;1624988;86;21123;-77
2022/12/03 01:26:29;;;;;;;45.27;23.40;;;;;;;-2.01;76.49;102093.75;1637323;86;21097;-77
2022/12/03 01:29:14;;;;;;;54.67;25.72;;;;;;;-2.00;76.50;102095.89;1638331;85;21094;-77
2022/12/03 01:35:04;;;;;;;43.63;23.87;;;;;;;-1.97;76.45;102081.26;1639193;85;21069;-77
2022/12/03 01:37:49;;;;;;;48.30;24.10;;;;;;;-2.00;76.48;102073.96;1638315;85;21077;-77
2022/12/03 01:40:34;;;;;;;44.53;22.50;;;;;;;-1.97;76.49;102079.99;1636666;85;21057;-77
2022/12/03 01:43:20;;;;;;;56.10;25.57;;;;;;;-1.98;76.46;102076.58;1639159;84;21104;-77
2022/12/03 01:46:05;;;;;;;49.08;22.93;;;;;;;-1.97;76.53;102082.53;1643112;84;21549;-77
2022/12/03 01:48:53;;;;;;;44.80;24.43;;;;;;;-1.97;76.56;102082.13;1644538;84;21077;-77
2022/12/03 01:51:38;;;;;;;45.73;24.18;;;;;;;-1.97;76.50;102077.45;1587005;88;21081;-77
2022/12/03 01:54:37;;;;;;;44.18;22.87;;;;;;;-1.97;76.54;102073.66;1638623;85;21104;-77
2022/12/03 01:57:33;;;;;;;45.15;21.93;;;;;;;-1.96;76.55;102076.28;1641015;86;21096;-77
2022/12/03 02:00:23;;;;;;;43.05;22.58;;;;;;;-1.95;76.61;102075.49;1639059;85;21076;-77
2022/12/03 02:03:15;;;;;;;47.25;24.10;;;;;;;-1.92;76.61;102069.34;1641083;86;21058;-77
2022/12/03 02:06:00;;;;;;;47.80;23.27;;;;;;;-1.91;76.57;102067.67;1643655;84;21055;-77
2022/12/03 02:08:47;;;;;;;53.05;24.10;;;;;;;-1.92;76.59;102063.00;1640259;84;21117;-77
2022/12/03 02:11:35;;;;;;;41.15;21.68;;;;;;;-1.91;76.61;102060.95;1637414;85;20959;-77
2022/12/03 02:14:21;;;;;;;41.98;22.15;;;;;;;-1.88;76.61;102058.59;1641208;86;20963;-77
2022/12/03 02:17:06;;;;;;;43.80;21.90;;;;;;;-1.86;76.61;102054.48;1642749;84;20957;-77
2022/12/03 02:19:51;;;;;;;41.13;20.15;;;;;;;-1.86;76.58;102055.75;1642905;84;21858;-77
2022/12/03 02:22:53;;;;;;;46.35;20.72;;;;;;;-1.85;76.58;102051.55;1638130;86;21534;-77
2022/12/03 02:25:38;;;;;;;39.33;21.48;;;;;;;-1.84;76.57;102052.03;1639692;84;21449;-77
2022/12/03 02:28:23;;;;;;;44.85;22.75;;;;;;;-1.84;76.59;102051.64;1642490;84;21432;-77
2022/12/03 02:31:08;;;;;;;47.15;21.80;;;;;;;-1.85;76.59;102050.28;1640739;86;21464;-76
2022/12/03 02:33:53;;;;;;;39.55;21.70;;;;;;;-1.84;76.63;102051.64;1641038;85;20930;-77
2022/12/03 02:36:39;;;;;;;39.90;20.60;;;;;;;-1.85;76.55;102051.16;1640775;85;20926;-77
2022/12/03 02:39:24;;;;;;;39.05;20.95;;;;;;;-1.88;76.56;102051.38;1644352;85;21122;-77
2022/12/03 02:45:38;;;;;;;37.35;20.05;;;;;;;-1.87;76.58;102055.27;1641053;84;20909;-77
2022/12/03 02:48:35;;;;;;;40.52;20.75;;;;;;;-1.88;76.55;102050.98;1641142;84;21747;-77
2022/12/03 02:51:20;;;;;;;42.05;21.35;;;;;;;-1.86;76.56;102053.21;1640934;84;20926;-77
2022/12/03 02:54:06;;;;;;;38.95;20.62;;;;;;;-1.87;76.54;102055.66;1643092;84;21824;-77
2022/12/03 02:56:51;;;;;;;43.80;22.02;;;;;;;-1.86;76.56;102053.60;1635867;85;453322;-77
2022/12/03 02:59:36;;;;;;;43.95;20.72;;;;;;;-1.89;76.55;102053.03;1639836;85;20932;-77
2022/12/03 03:02:21;;;;;;;45.58;21.33;;;;;;;-1.91;76.58;102055.88;1638259;85;21050;-77
2022/12/03 03:05:08;;;;;;;42.03;21.30;;;;;;;-1.90;76.61;102059.28;1619362;85;20962;-77
2022/12/03 03:07:52;;;;;;;45.20;20.08;;;;;;;-1.92;76.57;102056.66;1638881;85;20962;-77
2022/12/03 03:10:40;;;;;;;45.00;21.70;;;;;;;-1.95;76.58;102048.88;1639460;86;21391;-77
2022/12/03 03:13:24;;;;;;;41.40;22.52;;;;;;;-1.96;76.61;102058.54;1603396;87;20948;-77
2022/12/03 03:16:10;;;;;;;40.98;20.40;;;;;;;-1.95;76.62;102051.81;1623307;87;20933;-77
2022/12/03 03:18:54;;;;;;;44.08;21.02;;;;;;;-1.95;76.61;102054.34;1638246;86;21347;-77
2022/12/03 03:21:39;;;;;;;38.45;21.02;;;;;;;-1.95;76.64;102053.08;1635872;85;20979;-77
2022/12/03 03:24:25;;;;;;;39.92;20.40;;;;;;;-1.92;76.70;102054.13;1638917;85;20960;-77
2022/12/03 03:27:10;;;;;;;43.23;20.57;;;;;;;-1.91;76.65;102055.00;1638513;85;20923;-77
2022/12/03 03:29:57;;;;;;;44.10;20.52;;;;;;;-1.93;76.63;102052.77;1640262;85;21566;-77
2022/12/03 03:32:42;;;;;;;41.75;20.75;;;;;;;-1.93;76.69;102052.77;1637910;85;21437;-76
2022/12/03 03:35:27;;;;;;;44.85;21.25;;;;;;;-1.95;76.65;102055.22;1637107;85;21001;-77
2022/12/03 03:38:13;;;;;;;46.92;21.23;;;;;;;-2.02;76.57;102049.31;1636126;86;20986;-77
2022/12/03 03:41:00;;;;;;;34.73;17.40;;;;;;;-2.02;76.57;102049.31;1638979;85;20953;-77
2022/12/03 03:43:47;;;;;;;47.70;21.97;;;;;;;-2.03;76.76;102050.10;1647980;84;20956;-77
2022/12/03 03:46:33;;;;;;;46.00;20.82;;;;;;;-2.07;76.70;102050.31;1670353;84;20904;-77
2022/12/03 03:49:18;;;;;;;48.05;20.82;;;;;;;-2.06;76.83;102053.33;1667642;84;20968;-76
2022/12/03 03:52:04;;;;;;;45.92;21.75;;;;;;;-2.05;76.79;102050.02;1671407;83;20924;-77
2022/12/03 03:54:49;;;;;;;;;;;;;;;-2.06;76.75;102044.85;1668694;83;21363;-77
2022/12/03 03:57:34;;;;;;;41.10;19.07;;;;;;;-2.10;76.79;102041.30;1671773;83;20148;-76
2022/12/03 04:00:19;;;;;;;47.50;19.42;;;;;;;-2.11;76.85;102047.16;1662659;84;21444;-77
2022/12/03 04:03:05;;;;;;;47.85;21.23;;;;;;;-2.09;76.90;102044.71;1663727;84;21462;-77
2022/12/03 04:05:49;;;;;;;44.13;20.77;;;;;;;-2.08;76.88;102047.30;1668519;84;20952;-77
2022/12/03 04:08:35;;;;;;;43.55;21.35;;;;;;;-2.09;76.85;102043.44;1667975;83;21401;-77
2022/12/03 04:14:22;;;;;;;48.70;21.20;;;;;;;-2.14;76.87;102044.44;1671030;84;20902;-77
2022/12/03 04:17:07;;;;;;;44.23;20.90;;;;;;;-2.10;76.98;102038.77;1664725;83;21861;-77
2022/12/03 04:19:52;;;;;;;43.28;21.17;;;;;;;-2.11;76.92;102039.95;1669549;84;20928;-78
2022/12/03 04:22:40;;;;;;;52.53;21.52;;;;;;;-2.10;76.96;102042.56;1669051;83;20912;-77
2022/12/03 04:37:37;;;;;;;51.90;21.35;;;;;;;-1.91;77.15;102029.66;1668247;83;21381;-76
2022/12/03 04:43:28;;;;;;;49.33;21.62;;;;;;;-1.91;77.06;102023.31;1667468;83;21968;-77
2022/12/03 04:46:13;;;;;;;51.73;21.23;;;;;;;-1.91;77.10;102032.19;1650801;84;20993;-76
2022/12/03 04:48:58;;;;;;;48.75;22.50;;;;;;;-1.91;77.19;102022.05;1650844;85;21390;-77
2022/12/03 04:51:43;;;;;;;50.60;23.23;;;;;;;-1.93;77.11;102020.70;1556832;85;5001703;-77
2022/12/03 04:54:28;;;;;;;42.27;21.73;;;;;;;-1.92;77.16;102014.84;1651947;84;20918;-77
2022/12/03 04:57:13;;;;;;;52.50;21.20;;;;;;;-1.91;77.12;102009.37;1652524;85;21473;-77
2022/12/03 04:59:58;;;;;;;47.60;22.07;;;;;;;-1.93;77.14;102010.55;1654612;85;21047;-77
2022/12/03 05:02:43;;;;;;;43.42;21.30;;;;;;;-1.90;77.18;102004.78;1650780;85;21374;-77
2022/12/03 05:05:28;;;;;;;47.45;22.73;;;;;;;-1.88;77.19;102010.42;1651161;85;21050;-77
2022/12/03 05:08:13;;;;;;;48.17;22.37;;;;;;;-1.91;77.09;102000.11;1650317;86;20953;-77
2022/12/03 05:10:58;;;;;;;46.50;22.22;;;;;;;-1.91;77.19;102001.38;1653444;85;22004;-77
2022/12/03 05:13:43;;;;;;;56.70;22.98;;;;;;;-1.89;77.24;101996.39;1650875;85;21053;-77
2022/12/03 05:16:28;;;;;;;58.30;24.52;;;;;;;-1.90;77.28;101990.45;1650681;86;20969;-76
2022/12/03 05:19:13;;;;;;;57.20;25.45;;;;;;;-1.90;77.25;101992.11;1651876;85;21462;-77
2022/12/03 05:21:58;;;;;;;62.10;26.95;;;;;;;-1.92;77.32;101995.83;1648490;85;20921;-77
2022/12/03 05:24:43;;;;;;;56.33;26.65;;;;;;;-1.97;77.33;101984.95;1653987;85;20961;-77
2022/12/03 05:27:28;;;;;;;61.60;27.82;;;;;;;-1.99;77.41;101995.00;1655528;84;20917;-77
2022/12/03 05:30:13;;;;;;;69.53;27.55;;;;;;;-2.00;77.47;101994.12;1651697;85;21434;-77
2022/12/03 05:32:58;;;;;;;67.82;26.50;;;;;;;-2.00;77.51;101994.52;1651623;85;21031;-77
2022/12/03 05:35:43;;;;;;;66.05;26.82;;;;;;;-1.97;77.62;101989.63;1649404;85;20961;-77
2022/12/03 05:38:28;;;;;;;57.55;26.02;;;;;;;-1.96;77.52;101991.77;1651219;85;21976;-77
2022/12/03 05:44:16;;;;;;;63.02;26.75;;;;;;;-1.98;77.58;101990.80;1652877;85;21549;-77
2022/12/03 05:47:02;;;;;;;55.97;24.10;;;;;;;-2.00;77.61;101981.84;1652192;85;21485;-77
2022/12/03 05:49:46;;;;;;;54.93;24.43;;;;;;;-1.95;77.68;101984.64;1654090;85;21411;-77
2022/12/03 05:52:32;;;;;;;58.08;26.42;;;;;;;-1.94;77.67;101984.73;1652870;85;21415;-77
2022/12/03 05:55:18;;;;;;;68.15;26.52;;;;;;;-1.91;77.66;101982.77;1653965;85;21536;-77
2022/12/03 05:58:03;;;;;;;56.60;24.95;;;;;;;-1.93;77.66;101980.53;1653674;85;21813;-77
2022/12/03 06:00:47;;;;;;;57.43;24.70;;;;;;;-1.90;77.82;101979.44;1653799;85;20941;-78
2022/12/03 06:03:32;;;;;;;63.95;25.60;;;;;;;-1.88;77.81;101976.20;1652110;85;21411;-78
2022/12/03 06:06:17;;;;;;;57.17;25.43;;;;;;;-1.87;77.83;101980.48;1653866;84;21410;-78
2022/12/03 06:09:03;;;;;;;56.90;23.95;;;;;;;-1.85;77.83;101980.17;1649267;85;20932;-79
2022/12/03 06:11:52;;;;;;;58.28;24.25;;;;;;;-1.85;77.74;101980.17;1652520;85;20942;-79
2022/12/03 06:14:34;;;;;;;61.20;26.33;;;;;;;-1.87;77.78;101984.68;1652772;85;20917;-79
2022/12/03 06:17:19;;;;;;;58.05;26.27;;;;;;;-1.86;77.82;101987.30;1652066;85;21026;-79
2022/12/03 06:20:05;;;;;;;58.70;25.72;;;;;;;-1.90;77.78;101992.11;1618536;88;20947;-79
2022/12/03 06:22:50;;;;;;;60.28;24.95;;;;;;;-1.92;77.81;101989.49;1652572;85;21483;-79
2022/12/03 06:25:35;;;;;;;63.68;24.80;;;;;;;-1.87;77.99;101983.41;1658322;85;20918;-79
2022/12/03 06:28:20;;;;;;;56.60;26.02;;;;;;;-1.83;77.99;101982.80;1650408;85;21013;-79
2022/12/03 06:31:05;;;;;;;61.48;25.75;;;;;;;-1.79;77.99;101989.78;1648186;86;21536;-79
2022/12/03 06:33:50;;;;;;;63.10;27.35;;;;;;;-1.81;77.96;101983.36;1649048;85;20936;-78
2022/12/03 06:36:35;;;;;;;62.33;26.07;;;;;;;-1.78;77.98;101982.66;1655734;85;20973;-79
2022/12/03 06:39:21;;;;;;;62.05;27.30;;;;;;;-1.77;77.96;101980.61;1651663;85;20945;-79
2022/12/03 06:42:06;;;;;;;55.85;24.67;;;;;;;-1.80;77.98;101976.23;1649976;85;21834;-79
2022/12/03 06:44:50;;;;;;;59.67;25.88;;;;;;;-1.77;78.07;101975.53;1648527;85;20925;-79
2022/12/03 06:47:36;;;;;;;55.48;24.47;;;;;;;-1.74;78.09;101983.31;1649123;85;21437;-79
2022/12/03 06:50:20;;;;;;;54.93;26.05;;;;;;;-1.74;77.97;101985.45;1650216;85;20958;-78
2022/12/03 06:53:05;;;;;;;68.57;32.00;;;;;;;-1.80;77.96;101992.72;1649785;85;20925;-78
2022/12/03 06:55:50;;;;;;;80.00;33.23;;;;;;;-1.82;78.08;101989.22;1649383;85;21418;-79
2022/12/03 06:58:35;;;;;;;69.00;31.87;;;;;;;-1.81;78.13;101988.44;1651091;85;20917;-75
2022/12/03 07:01:21;;;;;;;63.68;28.77;;;;;;;-1.80;78.14;101979.16;1615990;86;20946;-79
2022/12/03 07:04:05;;;;;;;61.50;28.12;;;;;;;-1.80;78.07;101979.16;1649379;85;20925;-79
2022/12/03 07:06:50;;;;;;;62.13;28.05;;;;;;;-1.77;78.21;101976.80;1651274;85;21407;-79
2022/12/03 07:09:35;;;;;;;63.70;27.05;;;;;;;-1.77;78.12;101978.07;1649939;85;20913;-79
2022/12/03 07:12:20;;;;;;;63.30;26.20;;;;;;;-1.77;78.16;101974.27;1648424;85;20953;-79
2022/12/03 07:15:06;;;;;;;62.83;27.65;;;;;;;-1.76;78.17;101978.55;1648707;84;20982;-79
2022/12/03 07:17:51;;;;;;;68.62;27.42;;;;;;;-1.73;78.26;101975.79;1647397;85;20982;-79
2022/12/03 07:20:36;;;;;;;60.78;28.73;;;;;;;-1.73;78.19;101981.25;1648591;85;20959;-78
2022/12/03 07:23:21;;;;;;;64.13;27.80;;;;;;;-1.73;78.13;101972.37;1645764;85;20924;-79
2022/12/03 07:26:06;;;;;;;58.75;26.25;;;;;;;-1.73;78.15;101980.86;1648230;85;20949;-79
2022/12/03 07:28:51;;;;;;;53.48;25.43;;;;;;;-1.72;78.10;101983.00;1653908;85;20983;-79
2022/12/03 07:31:36;;;;;;;67.67;27.82;;;;;;;-1.76;78.14;101976.02;1645013;85;20973;-79
2022/12/03 07:34:21;;;;;;;82.82;35.95;;;;;;;-1.77;78.20;101973.88;1654835;85;20913;-79
2022/12/03 07:37:06;;;;;;;93.52;37.08;;;;;;;-1.74;78.23;101979.51;1650686;85;20985;-79
2022/12/03 07:39:53;;;;;;;98.60;37.00;;;;;;;-1.73;78.32;101975.79;1655417;85;20945;-78
2022/12/03 07:42:37;;;;;;;82.88;36.05;;;;;;;-1.70;78.19;101975.96;1650733;85;20957;-79
2022/12/03 07:45:22;;;;;;;84.52;36.05;;;;;;;-1.70;78.19;101975.96;1657935;83;21037;-79
2022/12/03 07:48:07;;;;;;;87.37;38.50;;;;;;;-1.69;78.24;101975.17;1667659;84;21004;-79
2022/12/03 07:50:53;;;;;;;84.95;39.78;;;;;;;-1.67;78.29;101972.72;1667186;84;21282;-79
2022/12/03 07:53:38;;;;;;;71.75;32.78;;;;;;;-1.68;78.25;101976.92;1667325;84;21769;-79
2022/12/03 07:56:23;;;;;;;67.10;32.93;;;;;;;-1.64;78.27;101975.82;1671121;83;20929;-79
2022/12/03 07:59:08;;;;;;;67.40;30.43;;;;;;;-1.64;78.28;101970.75;1635092;86;20937;-78
2022/12/03 08:01:53;;;;;;;64.62;31.05;;;;;;;-1.65;78.22;101971.14;1627456;86;20935;-79
2022/12/03 08:04:38;;;;;;;67.42;29.48;;;;;;;-1.63;78.35;101970.83;1624549;86;20986;-78
2022/12/03 08:07:23;;;;;;;65.83;29.43;;;;;;;-1.58;78.39;101966.89;1638160;86;20925;-79
2022/12/03 08:10:09;;;;;;;62.00;28.95;;;;;;;-1.54;78.42;101970.03;1632306;86;20972;-79
2022/12/03 08:12:57;;;;;;;62.88;28.70;;;;;;;-1.51;78.34;101968.94;1605529;87;651106;-79
2022/12/03 08:15:42;;;;;;;66.70;29.92;;;;;;;-1.48;78.32;101968.23;1638380;84;20957;-79
2022/12/03 08:18:27;;;;;;;68.57;30.60;;;;;;;-1.46;78.28;101966.65;1673642;83;21427;-79
2022/12/03 08:21:16;;;;;;;64.85;28.80;;;;;;;-1.43;78.40;101963.88;1670512;84;21369;-79
2022/12/03 08:24:18;;;;;;;65.70;30.52;;;;;;;-1.41;78.36;101961.03;1674289;83;20952;-79
2022/12/03 08:27:07;;;;;;;61.33;29.57;;;;;;;-1.33;78.45;101962.72;1669325;83;21697;-79
2022/12/03 08:29:55;;;;;;;61.37;28.92;;;;;;;-1.31;78.32;101965.33;1669541;82;21107;-79
2022/12/03 08:32:41;;;;;;;59.00;30.02;;;;;;;-1.30;78.43;101970.89;1666933;84;21044;-79
2022/12/03 08:35:29;;;;;;;64.20;30.23;;;;;;;-1.31;78.38;101966.20;1670591;83;21087;-79
2022/12/03 08:38:15;;;;;;;62.40;28.00;;;;;;;-1.32;78.34;101968.66;1670763;83;21138;-79
2022/12/03 08:41:01;;;;;;;67.03;31.42;;;;;;;-1.30;78.43;101965.41;1662885;84;48264;-79
2022/12/03 08:43:46;;;;;;;61.20;30.25;;;;;;;-1.25;78.47;101972.87;1669063;83;21095;-79
2022/12/03 08:46:31;;;;;;;67.45;32.23;;;;;;;-1.26;78.37;101967.72;1667861;83;21294;-79
2022/12/03 08:49:18;;;;;;;60.73;28.55;;;;;;;-1.25;78.43;101970.73;1666438;84;21099;-79
2022/12/03 08:52:17;;;;;;;58.42;27.73;;;;;;;-1.27;78.41;101973.59;1625625;87;21013;-78
2022/12/03 08:55:14;;;;;;;57.70;28.45;;;;;;;-1.27;78.41;101971.92;1601381;87;21081;-79
2022/12/03 08:57:59;;;;;;;59.40;27.70;;;;;;;-1.28;78.43;101972.72;1660951;84;21127;-79
2022/12/03 09:00:44;;;;;;;51.95;27.25;;;;;;;-1.27;78.48;101979.53;1650131;83;913183;-79
2022/12/03 09:03:31;;;;;;;52.35;25.12;;;;;;;-1.27;78.42;101979.53;1665078;84;21530;-79
2022/12/03 09:06:16;;;;;;;61.13;28.05;;;;;;;-1.28;78.49;101975.25;1662621;84;21014;-79
2022/12/03 09:09:01;;;;;;;62.15;28.10;;;;;;;-1.23;78.53;101975.50;1658955;84;21163;-78
2022/12/03 09:11:46;;;;;;;59.18;28.17;;;;;;;-1.21;78.54;101965.91;1662199;84;21059;-79
2022/12/03 09:14:31;;;;;;;53.98;26.73;;;;;;;-1.15;78.55;101972.97;1657838;84;21060;-79
2022/12/03 09:17:16;;;;;;;60.90;30.57;;;;;;;-1.15;78.51;101961.55;1661428;84;21041;-79
2022/12/03 09:20:01;;;;;;;61.37;27.53;;;;;;;-1.09;78.59;101964.02;1659287;84;21107;-79
2022/12/03 09:22:47;;;;;;;64.45;30.90;;;;;;;-1.03;78.61;101956.70;1658818;84;21825;-79
2022/12/03 09:25:32;;;;;;;58.25;28.25;;;;;;;-0.99;78.54;101961.53;1658433;84;21044;-78
2022/12/03 09:28:17;;;;;;;55.67;28.17;;;;;;;-0.95;78.57;101957.09;1658620;84;21317;-78
2022/12/03 09:31:02;;;;;;;96.87;29.67;;;;;;;-0.91;78.49;101958.13;1657148;84;21104;-79
2022/12/03 09:33:47;;;;;;;67.75;31.52;;;;;;;-0.93;78.53;101953.36;1660965;84;21468;-79
2022/12/03 09:36:33;;;;;;;56.28;26.70;;;;;;;-0.86;78.63;101949.08;1656642;84;21112;-79
2022/12/03 09:39:17;;;;;;;57.55;29.35;;;;;;;-0.84;78.56;101947.50;1656477;84;21607;-79
2022/12/03 09:42:03;;;;;;;68.33;31.70;;;;;;;-0.82;78.56;101949.32;1657077;84;21092;-79
2022/12/03 09:44:48;;;;;;;67.62;30.50;;;;;;;-0.75;78.72;101946.30;1657923;85;21048;-79
2022/12/03 09:47:34;;;;;;;52.27;26.52;;;;;;;-0.69;78.66;101944.47;1665610;84;21523;-79
2022/12/03 09:50:23;;;;;;;71.10;30.57;;;;;;;-0.67;78.73;101936.53;1667398;83;21095;-79
2022/12/03 09:53:13;;;;;;;71.53;32.25;;;;;;;-0.62;78.79;101934.22;1627233;86;21567;-78
2022/12/03 09:56:00;;;;;;;72.05;33.78;;;;;;;-0.61;78.77;101935.57;1662665;83;21048;-78
2022/12/03 09:58:45;;;;;;;62.90;29.63;;;;;;;-0.55;78.89;101929.92;1631197;86;20999;-78
2022/12/03 10:01:30;;;;;;;50.67;26.57;;;;;;;-0.51;78.76;101926.71;1627688;86;21604;-79
2022/12/03 10:04:15;;;;;;;58.80;30.30;;;;;;;-0.55;78.75;101922.30;1635917;85;22068;-78
2022/12/03 10:07:00;;;;;;;76.35;33.78;;;;;;;-0.54;78.80;101915.16;1635668;84;21009;-79
2022/12/03 10:09:45;;;;;;;51.90;27.48;;;;;;;-0.54;78.68;101922.78;1634033;85;21647;-78
2022/12/03 10:12:30;;;;;;;57.43;28.47;;;;;;;-0.53;78.77;101921.98;1638118;85;21105;-79
2022/12/03 10:15:18;;;;;;;53.83;27.87;;;;;;;-0.53;78.71;101914.36;1666301;83;20972;-79
2022/12/03 10:18:11;;;;;;;61.55;29.85;;;;;;;-0.52;78.77;101921.19;1670177;83;21048;-79
2022/12/03 10:20:57;;;;;;;57.83;28.67;;;;;;;-0.53;78.70;101910.16;1671776;83;21176;-79
2022/12/03 10:23:42;;;;;;;58.15;27.73;;;;;;;-0.50;78.81;101911.55;1668228;83;21066;-79
2022/12/03 10:26:40;;;;;;;60.28;29.42;;;;;;;-0.50;78.77;101917.02;1666650;84;22059;-78
2022/12/03 10:29:29;;;;;;;53.52;27.37;;;;;;;-0.49;78.82;101908.20;1667573;83;21090;-78
2022/12/03 10:32:13;;;;;;;60.17;26.68;;;;;;;-0.50;78.74;101907.73;1670824;82;21052;-78
2022/12/03 10:35:22;;;;;;;62.73;30.83;;;;;;;-0.49;78.82;101899.72;1669071;83;21436;-79
2022/12/03 10:38:18;;;;;;;62.60;29.82;;;;;;;-0.44;78.93;101901.69;1671723;83;22371;-79
2022/12/03 10:41:26;;;;;;;60.05;28.80;;;;;;;-0.42;78.84;101897.55;1667974;84;21060;-78
2022/12/03 10:44:24;;;;;;;52.80;25.57;;;;;;;-0.43;78.83;101888.58;1667673;84;21052;-79
2022/12/03 10:47:13;;;;;;;59.48;28.02;;;;;;;-0.36;78.94;101893.16;1659473;84;21112;-78
2022/12/03 10:50:04;;;;;;;51.37;27.32;;;;;;;-0.38;78.76;101890.95;1648794;86;21553;-79
2022/12/03 10:52:51;;;;;;;66.20;30.30;;;;;;;-0.44;78.73;101888.98;1650315;86;21100;-78
2022/12/03 10:55:41;;;;;;;51.92;27.77;;;;;;;-0.44;78.83;101883.90;1652764;85;21056;-79
2022/12/03 10:58:30;;;;;;;53.25;26.87;;;;;;;-0.40;78.91;101884.52;1653726;85;21110;-78
2022/12/03 11:01:20;;;;;;;55.30;28.38;;;;;;;-0.40;78.78;101881.98;1652729;85;21606;-79
2022/12/03 11:04:05;;;;;;;54.53;28.05;;;;;;;-0.39;78.90;101872.69;1647375;85;21346;-79
2022/12/03 11:06:50;;;;;;;52.80;27.58;;;;;;;-0.38;78.86;101866.41;1648702;85;20992;-78
2022/12/03 11:09:35;;;;;;;59.20;28.80;;;;;;;-0.37;78.88;101872.36;1648175;85;21096;-78
2022/12/03 11:12:24;;;;;;;60.65;29.30;;;;;;;-0.35;78.96;101869.09;1650915;85;21545;-78
2022/12/03 11:15:15;;;;;;;65.55;30.90;;;;;;;-0.34;78.91;101868.30;1651384;85;21646;-79
2022/12/03 11:18:01;;;;;;;60.80;29.07;;;;;;;-0.31;79.00;101875.20;1619069;86;21077;-79
2022/12/03 11:20:57;;;;;;;61.00;29.87;;;;;;;-0.35;78.83;101874.58;1650000;85;21557;-79
2022/12/03 11:23:50;;;;;;;59.42;28.47;;;;;;;-0.44;78.75;101872.86;1651600;85;21108;-79
2022/12/03 11:26:44;;;;;;;65.12;30.10;;;;;;;-0.46;78.93;101872.79;1652194;85;21147;-79
2022/12/03 11:29:58;;;;;;;58.38;29.65;;;;;;;-0.46;78.88;101876.60;1650300;85;21630;-79
2022/12/03 11:32:59;;;;;;;68.70;32.88;;;;;;;-0.50;78.88;101867.09;1652999;84;21140;-79
2022/12/03 11:36:08;;;;;;;58.63;29.80;;;;;;;-0.52;78.95;101860.22;1654275;84;21356;-79
2022/12/03 11:38:54;;;;;;;57.20;28.90;;;;;;;-0.49;79.00;101861.60;1654293;85;22019;-79
2022/12/03 11:41:39;;;;;;;68.75;30.72;;;;;;;-0.51;78.97;101857.72;1655422;83;21492;-78
2022/12/03 11:44:31;;;;;;;57.67;29.67;;;;;;;-0.50;78.98;101860.73;1654443;85;21075;-79
2022/12/03 11:47:16;;;;;;;60.35;28.15;;;;;;;-0.48;78.94;101862.08;1652643;85;21076;-78
2022/12/03 11:50:20;;;;;;;58.15;28.55;;;;;;;-0.49;79.04;101853.59;1651128;84;21041;-79
2022/12/03 11:53:16;;;;;;;56.95;29.32;;;;;;;-0.45;79.06;101859.69;1653910;85;21064;-78
2022/12/03 11:56:07;;;;;;;60.33;29.27;;;;;;;-0.43;79.08;101857.69;1649435;85;20988;-79
2022/12/03 11:59:02;;;;;;;61.13;28.83;;;;;;;-0.42;78.98;101858.16;1648894;85;21052;-79
2022/12/03 12:01:47;;;;;;;54.60;27.13;;;;;;;-0.50;78.93;101854.78;1653517;84;21044;-79
2022/12/03 12:04:41;;;;;;;57.25;28.05;;;;;;;-0.50;78.98;101846.76;1650924;85;21905;-78
2022/12/03 12:07:36;;;;;;;58.35;29.02;;;;;;;-0.52;78.98;101852.16;1649104;85;21666;-78
2022/12/03 12:10:42;;;;;;;62.55;29.85;;;;;;;-0.51;79.03;101849.23;1649937;85;21135;-79
2022/12/03 12:13:36;;;;;;;57.93;28.77;;;;;;;-0.52;79.02;101847.09;1651148;86;21003;-79
2022/12/03 12:16:51;;;;;;;65.12;29.90;;;;;;;-0.53;79.01;101843.23;1650241;85;21562;-78
2022/12/03 12:19:43;;;;;;;62.55;30.17;;;;;;;-0.53;79.04;101841.96;1650820;85;21214;-79
2022/12/03 12:22:30;;;;;;;66.00;29.65;;;;;;;-0.50;79.08;101843.34;1650788;84;21075;-79
2022/12/03 12:25:35;;;;;;;65.22;31.27;;;;;;;-0.51;79.07;101837.80;1653652;85;21501;-78
2022/12/03 12:28:20;;;;;;;61.25;30.52;;;;;;;-0.48;79.08;101841.35;1618599;85;21084;-78
2022/12/03 12:31:12;;;;;;;61.18;29.20;;;;;;;-0.50;79.00;101842.95;1646206;85;21046;-78
2022/12/03 12:33:57;;;;;;;57.48;28.30;;;;;;;-0.50;79.02;101835.33;1646904;85;21059;-79
2022/12/03 12:36:42;;;;;;;66.40;30.67;;;;;;;-0.50;79.08;101831.91;1648720;85;21458;-79
2022/12/03 12:39:27;;;;;;;64.32;31.27;;;;;;;-0.47;79.10;101826.59;1650823;84;21096;-79
2022/12/03 12:42:27;;;;;;;69.32;33.25;;;;;;;-0.48;79.04;101823.97;1652180;85;21489;-79
2022/12/03 12:45:16;;;;;;;66.65;32.78;;;;;;;-0.48;79.09;101827.38;1614506;87;21133;-79
2022/12/03 12:48:15;;;;;;;70.72;33.15;;;;;;;-0.47;79.11;101830.39;1653824;84;21682;-79
2022/12/03 12:51:13;;;;;;;68.60;30.95;;;;;;;-0.44;79.16;101829.67;1658153;84;21078;-79
2022/12/03 12:53:58;;;;;;;73.15;32.63;;;;;;;-0.45;79.12;101831.73;1658214;85;21355;-79
2022/12/03 12:56:48;;;;;;;61.70;30.25;;;;;;;-0.46;79.09;101835.95;1661227;84;21516;-79
2022/12/03 12:59:33;;;;;;;72.53;33.20;;;;;;;-0.49;79.07;101829.45;1631057;86;20942;-79
2022/12/03 13:02:32;;;;;;;65.35;31.82;;;;;;;-0.49;79.15;101829.45;1659294;84;20929;-79
2022/12/03 13:05:17;;;;;;;70.15;33.30;;;;;;;-0.50;79.11;101826.84;1659962;84;20964;-79
2022/12/03 13:08:02;;;;;;;67.75;32.33;;;;;;;-0.51;79.17;101818.34;1660805;83;20953;-79